Terminal Aerodrome Forecast
Issued by NWS Knoxville/Tri Cities, TN

Home | Current Version | Previous Version | Text Only | Print | Product List | Glossary On
Versions: 1 2 3 4 5 6 7 8 9 10 11 12 13 14 15 16 17 18 19 20
000
FTUS44 KMRX 242320
TAFTYS
TAF
KTYS 242320Z 2500/2524 14005KT P6SM VCSH BKN060
     FM250300 00000KT P6SM SCT060
     FM251500 20004KT P6SM BKN050
     FM252100 22006KT P6SM VCSH BKN050=

USA.gov is the U.S. government's official web portal to all federal, state and local government web resources and services.